Frederika, IA

12:31 PM CST on February 12, 2016 (GMT -0600)
Wartburg College Observatory | | Change Station
CLOSE
Current Station
Personal Weather Station
Location: Waverly, IA
Elevation: 928 ft
Nearby Weather Stations
Active Advisory: Wind Chill Advisory

Elev 928 ft 42.73 °N, 92.49 °W | Updated 4 seconds ago

Clear
Clear
13.0 °F
Feels Like -6 °F
N
21.9
Wind Variable Wind from WNW
Gusts 21.9 mph

Today
High -- | Low -- °F
--% Chance of Precip.
Yesterday
High -- | Low -- °F
Precip. -- in
Pressure 30.35 in
Visibility 7.0 miles
Clouds Clear
Windchill -6 °F
Dew Point 5 °F
Humidity 70%
Rainfall 0.00 in
Snow Depth Not available.
7:10 AM 5:36 PM
Waxing Crescent, 22% visible
METAR KOLZ 121815Z AUTO 33022G28KT 7SM CLR M11/M16 A3035 RMK AO2
Pressure 30.35 in
Visibility 7.0 miles
Clouds Clear
Windchill -6 °F
Dew Point 5 °F
Humidity 70%
Rainfall 0.00 in
Snow Depth Not available.
7:10 AM 5:36 PM
Waxing Crescent, 22% visible
METAR KOLZ 121815Z AUTO 33022G28KT 7SM CLR M11/M16 A3035 RMK AO2

10-Day Weather Forecast

Almanac

Astronomy

Feb. 12, 2016 Rise Set
Actual Time
Civil Twilight
Nautical Twilight
Astronomical Twilight
Moon
Length of Visible Light
Length of Day
Tomorrow will be .
, % of the Moon is Illuminated

Today's Extremes

State Highs State Lows

Community

WunderPhotos

Upload Photos

1,892,366 photos uploaded!

WunderBlog® & News

Nearby

Air Quality

  Air Quality AQ Index Pollutant
Not available.

Snow Depth

Station Depth Elevation

Earthquake Activity

City Distance Mag. Time & Date
Minimum magnitude displayed is 2.5.

Coastal Water Temperatures

Place Temperature

Stations

Nearby Weather Stations

Station Location Temp. Windchill Dew Point Humidity Wind Precip. Elev Updated Type
                   

Watches & Warnings

Wind Chill Advisory
Issued: 10:11 AM CST Feb. 12, 2016 – National Weather Service

... Wind Chill Advisory remains in effect from 6 PM this evening
to 8 am CST Saturday...

* timing... this evening into Saturday morning

* winds... northwest at 5 to 15 mph

* temperatures/wind chill values... wind chill values will drop
into the 20 below to 30 below range... due to the combination of
bitter cold temperatures in the single digits and teens below
zero and the wind.

* Impacts... those with interests outdoors should dress warmly
and cover exposed skin... as frostbite and hypothermia are
possible if the proper precautions are not taken.

Precautionary/preparedness actions...

A Wind Chill Advisory means that very cold air and strong winds
will combine to generate low wind chills. This will result in
frost bite and lead to hypothermia if precautions are not taken.
If you must venture outdoors... make sure you wear a hat and
gloves.



Fab